Time;durP1;ratioP1;P1;durP2;ratioP2;P2;SDS_P1;SDS_P2;PMS_P1;PMS_P2;Temp;Humidity;BMP_temperature;BMP_pressure;BME280_temperature;BME280_humidity;BME280_pressure;Samples;Min_cycle;Max_cycle;Signal;HPM_P1;HPM_P2
2022/06/21 00:02:12;;;;;;;3.25;2.08;;;10.20;99.90;;;;;;5035306;28;20034;-77
2022/06/21 00:04:39;;;;;;;5.07;2.28;;;10.10;99.90;;;;;;5037914;28;20042;-78
2022/06/21 00:07:09;;;;;;;3.58;2.03;;;10.00;99.90;;;;;;5037839;28;20030;-79
2022/06/21 00:09:35;;;;;;;3.88;2.13;;;9.90;99.90;;;;;;5035685;28;20037;-78
2022/06/21 00:12:01;;;;;;;4.07;2.65;;;9.90;99.90;;;;;;5042925;28;20029;-80
2022/06/21 00:14:28;;;;;;;4.15;2.13;;;9.80;99.90;;;;;;5053191;28;20403;-79
2022/06/21 00:16:55;;;;;;;3.28;2.10;;;9.80;99.90;;;;;;5036378;28;20037;-79
2022/06/21 00:19:24;;;;;;;4.22;2.00;;;9.80;99.90;;;;;;5046650;28;20033;-80
2022/06/21 00:21:51;;;;;;;4.18;2.78;;;9.80;99.90;;;;;;5035013;28;20049;-79
2022/06/21 00:24:18;;;;;;;6.18;2.40;;;9.80;99.90;;;;;;5054161;28;20490;-80
2022/06/21 00:26:46;;;;;;;5.95;2.40;;;9.70;99.90;;;;;;5051505;28;20074;-80
2022/06/21 00:29:12;;;;;;;5.05;2.50;;;9.70;99.90;;;;;;5046579;28;20025;-80
2022/06/21 00:31:45;;;;;;;3.83;2.30;;;9.70;99.90;;;;;;5046610;28;20127;-80
2022/06/21 00:34:15;;;;;;;3.83;2.97;;;9.70;99.90;;;;;;5038763;28;20025;-79
2022/06/21 00:36:42;;;;;;;4.55;3.00;;;9.70;99.90;;;;;;5043595;28;20056;-78
2022/06/21 00:39:12;;;;;;;3.30;2.65;;;9.80;99.90;;;;;;5050185;28;20048;-78
2022/06/21 00:41:45;;;;;;;4.07;2.60;;;9.70;99.90;;;;;;5036410;28;20276;-79
2022/06/21 00:44:18;;;;;;;2.47;2.20;;;9.80;99.90;;;;;;5034672;28;20025;-79
2022/06/21 00:47:04;;;;;;;3.15;2.20;;;9.90;99.90;;;;;;5033257;28;20496;-79
2022/06/21 00:49:49;;;;;;;5.20;2.80;;;9.80;99.90;;;;;;5037890;28;20045;-78
2022/06/21 00:52:43;;;;;;;2.88;1.88;;;9.60;99.90;;;;;;5034050;28;20036;-79
2022/06/21 00:55:21;;;;;;;4.65;2.45;;;9.50;99.90;;;;;;5016056;28;20042;-79
2022/06/21 00:57:53;;;;;;;2.70;2.20;;;9.40;99.90;;;;;;5016559;28;20046;-79
2022/06/21 01:00:38;;;;;;;4.00;2.55;;;9.40;99.90;;;;;;5018602;28;20041;-80
2022/06/21 01:03:12;;;;;;;3.63;2.33;;;9.40;99.90;;;;;;5021359;28;20529;-80
2022/06/21 01:05:41;;;;;;;3.38;2.38;;;9.40;99.90;;;;;;5029765;28;20332;-80
2022/06/21 01:08:10;;;;;;;6.50;3.58;;;9.30;99.90;;;;;;5025055;28;20041;-80
2022/06/21 01:10:38;;;;;;;4.57;2.30;;;9.30;99.90;;;;;;5024276;28;20033;-79
2022/06/21 01:13:12;;;;;;;3.25;2.58;;;9.30;99.90;;;;;;5031283;28;20033;-80
2022/06/21 01:15:44;;;;;;;6.22;3.97;;;9.30;99.90;;;;;;5015620;28;20042;-79
2022/06/21 01:18:12;;;;;;;5.75;2.88;;;9.40;99.90;;;;;;5019295;28;20072;-78
2022/06/21 01:20:45;;;;;;;7.18;3.95;;;9.60;99.90;;;;;;5016736;28;20317;-79
2022/06/21 01:23:19;;;;;;;3.90;2.58;;;9.60;99.90;;;;;;5022331;28;20486;-77
2022/06/21 01:26:03;;;;;;;3.85;2.90;;;9.40;99.90;;;;;;5013143;28;20052;-78
2022/06/21 01:28:31;;;;;;;3.30;2.55;;;9.20;99.90;;;;;;5025442;28;20045;-79
2022/06/21 01:30:59;;;;;;;2.97;2.50;;;9.10;99.90;;;;;;5018011;28;20042;-79
2022/06/21 01:33:34;;;;;;;5.22;3.40;;;9.00;99.90;;;;;;5031246;28;20502;-78
2022/06/21 01:36:06;;;;;;;4.38;2.92;;;9.00;99.90;;;;;;5035006;28;20040;-79
2022/06/21 01:38:39;;;;;;;4.05;2.92;;;8.90;99.90;;;;;;5043558;28;20029;-79
2022/06/21 01:41:13;;;;;;;6.90;4.07;;;9.10;99.90;;;;;;5049537;28;20040;-78
2022/06/21 01:43:41;;;;;;;5.05;2.80;;;9.20;99.90;;;;;;5032648;28;20048;-78
2022/06/21 01:46:12;;;;;;;3.88;2.92;;;9.30;99.90;;;;;;5033093;28;20220;-77
2022/06/21 01:48:43;;;;;;;4.25;2.25;;;9.10;99.90;;;;;;5033626;28;20052;-78
2022/06/21 01:51:19;;;;;;;3.53;2.83;;;9.00;99.90;;;;;;5034077;28;20037;-77
2022/06/21 01:53:45;;;;;;;3.47;2.65;;;8.90;99.90;;;;;;5051984;28;20474;-79
2022/06/21 01:56:26;;;;;;;3.72;2.92;;;8.90;99.90;;;;;;5046320;28;20044;-78
2022/06/21 01:59:15;;;;;;;5.27;2.63;;;8.90;99.90;;;;;;5039918;28;20044;-79
2022/06/21 02:01:59;;;;;;;3.83;3.03;;;9.10;99.90;;;;;;5047990;28;20298;-78
2022/06/21 02:04:31;;;;;;;3.83;3.00;;;9.10;99.90;;;;;;5044647;28;20489;-79
2022/06/21 02:07:05;;;;;;;3.78;2.50;;;9.00;99.90;;;;;;5034943;28;20033;-79
2022/06/21 02:10:09;;;;;;;3.83;3.20;;;8.80;99.90;;;;;;5037320;28;20037;-77
2022/06/21 02:12:50;;;;;;;5.82;3.22;;;8.90;99.90;;;;;;5032226;28;20052;-77
2022/06/21 02:15:58;;;;;;;4.97;2.78;;;8.90;99.90;;;;;;5037942;28;20049;-77
2022/06/21 02:18:26;;;;;;;3.53;2.95;;;8.90;99.90;;;;;;5033908;28;20030;-78
2022/06/21 02:20:58;;;;;;;5.68;3.45;;;9.00;99.90;;;;;;5033325;28;20042;-78
2022/06/21 02:23:24;;;;;;;;;;;9.10;99.90;;;;;;5052334;28;20025;-78
2022/06/21 02:25:53;;;;;;;5.95;3.25;;;9.20;99.90;;;;;;5044465;28;19917;-77
2022/06/21 02:28:19;;;;;;;7.00;4.70;;;9.10;99.90;;;;;;5035720;28;20049;-79
2022/06/21 02:30:49;;;;;;;3.85;3.28;;;9.10;99.90;;;;;;5032577;28;20026;-79
2022/06/21 02:33:23;;;;;;;4.60;2.85;;;9.10;99.90;;;;;;5038765;28;20493;-79
2022/06/21 02:35:53;;;;;;;4.70;2.50;;;9.10;99.90;;;;;;5036923;28;20041;-78
2022/06/21 02:38:29;;;;;;;4.03;2.67;;;9.00;99.90;;;;;;5047259;28;20037;-79
2022/06/21 02:41:22;;;;;;;4.72;3.33;;;9.10;99.90;;;;;;5033728;28;20041;-77
2022/06/21 02:44:14;;;;;;;3.65;2.90;;;9.10;99.90;;;;;;5035828;28;20029;-77
2022/06/21 02:46:46;;;;;;;5.03;2.70;;;9.00;99.90;;;;;;5035129;28;20045;-79
2022/06/21 02:49:34;;;;;;;4.05;3.08;;;8.90;99.90;;;;;;5040654;28;20041;-79
2022/06/21 02:52:09;;;;;;;4.93;3.00;;;8.90;99.90;;;;;;5058849;28;20036;-80
2022/06/21 02:54:54;;;;;;;5.72;2.65;;;8.80;99.90;;;;;;5047066;28;20048;-79
2022/06/21 02:57:43;;;;;;;5.53;3.75;;;8.80;99.90;;;;;;5047755;28;20033;-78
2022/06/21 03:00:17;;;;;;;4.15;2.80;;;8.90;99.90;;;;;;5057452;28;20040;-79
2022/06/21 03:02:44;;;;;;;3.33;2.70;;;8.80;99.90;;;;;;5046778;28;20029;-78
2022/06/21 03:05:15;;;;;;;4.93;2.70;;;8.80;99.90;;;;;;5059763;28;20048;-79
2022/06/21 03:07:47;;;;;;;6.75;3.55;;;8.90;99.90;;;;;;5048422;28;20041;-77
2022/06/21 03:10:21;;;;;;;4.68;2.60;;;8.90;99.90;;;;;;5053251;28;20039;-78
2022/06/21 03:12:50;;;;;;;4.13;3.22;;;8.90;99.90;;;;;;5040036;28;20044;-79
2022/06/21 03:15:16;;;;;;;3.63;2.88;;;9.00;99.90;;;;;;5048705;28;20052;-78
2022/06/21 03:17:51;;;;;;;6.18;3.50;;;9.00;99.90;;;;;;5042181;28;20041;-79
2022/06/21 03:20:20;;;;;;;4.45;2.75;;;9.00;99.90;;;;;;5040444;28;20036;-79
2022/06/21 03:22:51;;;;;;;4.07;2.55;;;9.00;99.90;;;;;;5053267;28;20041;-77
2022/06/21 03:25:21;;;;;;;4.85;2.88;;;9.00;99.90;;;;;;5035822;28;20038;-78
2022/06/21 03:28:00;;;;;;;4.05;3.28;;;8.90;99.90;;;;;;5039990;28;20037;-80
2022/06/21 03:30:30;;;;;;;8.25;3.47;;;8.80;99.90;;;;;;5042820;28;20042;-80
2022/06/21 03:32:58;;;;;;;7.00;3.65;;;8.70;99.90;;;;;;5043907;28;20026;-78
2022/06/21 03:35:31;;;;;;;6.28;3.90;;;8.70;99.90;;;;;;5034525;28;20033;-78
2022/06/21 03:37:58;;;;;;;4.70;3.55;;;8.80;99.90;;;;;;5045839;28;20049;-78
2022/06/21 03:43:21;;;;;;;5.15;3.95;;;8.80;99.90;;;;;;5045345;28;20030;-79
2022/06/21 03:45:50;;;;;;;6.65;3.90;;;8.80;99.90;;;;;;5034540;28;20037;-79
2022/06/21 03:48:23;;;;;;;7.43;3.92;;;8.70;99.90;;;;;;5038917;28;20030;-79
2022/06/21 03:51:00;;;;;;;5.78;3.85;;;8.90;99.90;;;;;;5051897;28;20037;-80
2022/06/21 03:53:32;;;;;;;5.68;4.30;;;9.00;99.90;;;;;;5042327;28;20033;-79
2022/06/21 03:56:01;;;;;;;5.68;4.32;;;9.30;99.90;;;;;;5038682;28;20045;-79
2022/06/21 03:58:52;;;;;;;8.40;3.75;;;9.30;99.90;;;;;;5047898;28;20048;-79
2022/06/21 04:01:25;;;;;;;4.00;2.72;;;9.30;99.90;;;;;;5043643;28;20505;-81
2022/06/21 04:03:57;;;;;;;5.97;3.53;;;9.30;99.90;;;;;;5041460;28;20044;-80
2022/06/21 04:06:29;;;;;;;7.40;4.78;;;9.40;99.90;;;;;;5037604;28;20041;-79
2022/06/21 04:09:04;;;;;;;5.72;3.50;;;9.40;99.90;;;;;;5053723;28;20045;-78
2022/06/21 04:11:45;;;;;;;4.80;3.58;;;9.40;99.90;;;;;;5040304;28;20040;-79
2022/06/21 04:14:36;;;;;;;4.55;3.90;;;9.50;99.90;;;;;;5063393;28;20045;-80
2022/06/21 04:17:21;;;;;;;5.85;3.70;;;9.70;99.90;;;;;;5035625;28;20112;-79
2022/06/21 04:20:09;;;;;;;4.70;3.08;;;9.90;99.90;;;;;;5040203;28;20033;-80
2022/06/21 04:22:41;;;;;;;4.32;3.00;;;10.80;99.90;;;;;;5049166;28;20040;-79
2022/06/21 04:25:14;;;;;;;3.35;2.20;;;11.80;99.90;;;;;;5043513;28;20032;-79
2022/06/21 04:27:52;;;;;;;5.50;2.53;;;12.70;99.90;;;;;;5050783;28;20041;-80
2022/06/21 04:30:25;;;;;;;2.35;2.13;;;13.20;99.90;;;;;;5035859;28;20045;-80
2022/06/21 04:33:09;;;;;;;4.20;2.00;;;13.80;99.90;;;;;;5035653;28;20029;-79
2022/06/21 04:35:40;;;;;;;2.30;1.50;;;15.00;99.20;;;;;;5034381;28;20048;-79
2022/06/21 04:38:33;;;;;;;4.22;1.65;;;16.10;93.60;;;;;;5035095;28;20046;-80
2022/06/21 04:41:05;;;;;;;3.70;1.70;;;15.60;93.80;;;;;;5031850;28;20045;-79
2022/06/21 04:43:46;;;;;;;3.00;1.83;;;15.40;93.90;;;;;;5040933;28;20040;-80
2022/06/21 04:46:16;;;;;;;2.78;1.45;;;15.80;93.00;;;;;;5043317;28;20045;-79
2022/06/21 04:49:05;;;;;;;2.05;1.70;;;16.00;92.20;;;;;;5043886;28;20374;-80
2022/06/21 04:51:56;;;;;;;4.30;1.85;;;15.80;92.50;;;;;;5034780;28;20044;-79
2022/06/21 04:54:26;;;;;;;3.92;1.80;;;15.70;93.40;;;;;;5069181;28;20045;-79
2022/06/21 04:57:03;;;;;;;2.73;1.60;;;15.70;93.50;;;;;;5067300;28;20056;-81
2022/06/21 04:59:34;;;;;;;2.53;1.38;;;16.10;92.80;;;;;;5052624;28;20303;-83
2022/06/21 05:02:02;;;;;;;2.72;1.90;;;15.70;93.90;;;;;;5045326;28;20401;-82
2022/06/21 05:04:33;;;;;;;4.13;2.10;;;15.70;94.10;;;;;;5062207;28;20047;-83
2022/06/21 05:07:04;;;;;;;2.78;1.65;;;15.70;94.20;;;;;;5066422;28;20032;-80
2022/06/21 05:09:32;;;;;;;5.18;2.70;;;15.90;94.60;;;;;;5053617;28;20045;-81
2022/06/21 05:12:22;;;;;;;3.38;2.08;;;16.30;94.30;;;;;;5058784;28;20036;-80
2022/06/21 05:15:09;;;;;;;3.88;2.00;;;16.70;92.70;;;;;;5051798;28;20053;-81
2022/06/21 05:17:39;;;;;;;4.00;1.92;;;16.50;93.50;;;;;;5062344;28;20045;-80
2022/06/21 05:20:15;;;;;;;4.15;1.40;;;17.10;91.90;;;;;;5057351;28;20532;-81
2022/06/21 05:22:46;;;;;;;2.00;1.70;;;17.30;91.30;;;;;;5066201;28;20080;-80
2022/06/21 05:25:25;;;;;;;3.47;1.88;;;17.40;90.40;;;;;;5046253;28;20044;-80
2022/06/21 05:28:04;;;;;;;3.10;1.67;;;17.20;90.70;;;;;;5034511;28;20049;-80
2022/06/21 05:30:33;;;;;;;3.70;1.98;;;17.60;89.90;;;;;;5036457;28;20044;-81
2022/06/21 05:33:06;;;;;;;3.28;1.63;;;17.70;89.30;;;;;;5045979;28;20025;-80
2022/06/21 05:35:33;;;;;;;2.22;1.48;;;18.20;86.80;;;;;;5038180;28;20022;-82
2022/06/21 05:38:06;;;;;;;3.78;1.65;;;18.90;84.80;;;;;;5041767;28;20502;-80
2022/06/21 05:40:51;;;;;;;3.83;1.67;;;19.20;81.10;;;;;;5037826;28;20045;-81
2022/06/21 05:43:23;;;;;;;2.92;1.40;;;18.90;80.70;;;;;;5034370;28;20375;-80
2022/06/21 05:46:01;;;;;;;5.47;2.22;;;17.80;85.20;;;;;;5033072;28;20034;-84
2022/06/21 05:48:32;;;;;;;4.40;1.58;;;18.60;84.50;;;;;;5033491;28;20030;-80
2022/06/21 05:51:00;;;;;;;4.03;1.85;;;19.30;79.90;;;;;;5040739;28;20041;-86
2022/06/21 05:53:46;;;;;;;4.55;1.60;;;19.70;78.50;;;;;;5033575;28;20033;-84
2022/06/21 05:56:16;;;;;;;13.70;2.13;;;19.60;77.20;;;;;;5040326;28;20704;-82
2022/06/21 05:58:55;;;;;;;3.15;1.40;;;20.20;76.40;;;;;;5033511;28;20037;-81
2022/06/21 06:01:28;;;;;;;5.03;1.58;;;19.40;78.30;;;;;;5035548;28;20482;-81
2022/06/21 06:04:09;;;;;;;4.15;1.90;;;19.70;77.80;;;;;;5045646;28;20033;-82
2022/06/21 06:06:39;;;;;;;3.67;2.00;;;20.20;76.20;;;;;;5045300;28;20037;-83
2022/06/21 06:09:30;;;;;;;4.45;1.48;;;20.30;76.50;;;;;;5035966;28;20037;-82
2022/06/21 06:12:08;;;;;;;3.85;1.48;;;20.30;75.00;;;;;;5044729;28;20459;-81
2022/06/21 06:14:40;;;;;;;2.60;1.38;;;20.80;72.50;;;;;;5043744;28;20048;-83
2022/06/21 06:17:41;;;;;;;6.00;1.73;;;20.60;73.50;;;;;;5051209;28;20037;-74
2022/06/21 06:20:22;;;;;;;2.70;2.00;;;20.40;73.00;;;;;;5039436;28;20034;-77
2022/06/21 06:23:26;;;;;;;3.40;1.45;;;19.30;74.70;;;;;;5037060;28;20499;-77
2022/06/21 06:25:58;;;;;;;4.53;1.98;;;19.10;76.20;;;;;;5051370;28;20041;-76
2022/06/21 06:28:49;;;;;;;2.70;1.63;;;19.30;76.50;;;;;;5054262;28;20037;-77
2022/06/21 06:31:43;;;;;;;3.20;1.55;;;19.30;76.70;;;;;;5039575;28;20389;-77
2022/06/21 06:34:14;;;;;;;3.88;1.90;;;19.60;75.60;;;;;;5047317;28;20036;-78
2022/06/21 06:36:47;;;;;;;4.93;1.52;;;19.90;73.90;;;;;;5036418;28;20045;-76
2022/06/21 06:39:29;;;;;;;3.00;1.30;;;20.30;73.50;;;;;;5037054;28;20458;-76
2022/06/21 06:42:04;;;;;;;2.75;1.13;;;20.30;72.40;;;;;;5036647;28;20030;-78
2022/06/21 06:44:36;;;;;;;6.07;1.38;;;21.00;70.30;;;;;;5035472;28;20037;-77
2022/06/21 06:47:03;;;;;;;3.50;1.90;;;21.80;68.50;;;;;;5036373;28;20042;-76
2022/06/21 06:49:34;;;;;;;3.72;1.48;;;21.60;67.30;;;;;;5043704;28;20040;-78
2022/06/21 06:52:12;;;;;;;2.70;1.38;;;22.20;66.40;;;;;;5049451;28;20056;-77
2022/06/21 06:54:50;;;;;;;2.95;1.30;;;22.30;67.30;;;;;;5035212;28;20040;-78
2022/06/21 06:57:47;;;;;;;5.50;2.03;;;21.80;66.40;;;;;;5036485;28;20468;-77
2022/06/21 07:00:16;;;;;;;2.60;1.58;;;20.70;68.40;;;;;;5035557;28;20041;-78
2022/06/21 07:03:15;;;;;;;3.28;1.38;;;19.80;71.60;;;;;;5055649;28;20037;-75
2022/06/21 07:05:55;;;;;;;2.42;1.17;;;19.00;72.50;;;;;;5045545;28;20045;-78
2022/06/21 07:08:41;;;;;;;3.55;1.50;;;18.70;73.40;;;;;;5048514;28;20033;-79
2022/06/21 07:11:31;;;;;;;4.18;1.33;;;18.80;74.10;;;;;;5054432;28;20384;-77
2022/06/21 07:14:00;;;;;;;2.00;1.30;;;18.60;74.80;;;;;;5047503;28;20045;-77
2022/06/21 07:16:30;;;;;;;3.95;1.15;;;20.30;71.70;;;;;;5046405;28;20032;-75
2022/06/21 07:18:59;;;;;;;;;;;21.70;65.50;;;;;;5034811;28;20128;-77
2022/06/21 07:21:26;;;;;;;4.80;1.10;;;22.00;62.70;;;;;;5034311;28;19910;-79
2022/06/21 07:23:57;;;;;;;2.28;1.42;;;23.20;57.80;;;;;;5032678;28;20042;-77
2022/06/21 07:26:32;;;;;;;3.80;1.17;;;23.50;56.00;;;;;;5031948;28;20041;-75
2022/06/21 07:29:25;;;;;;;9.15;1.35;;;23.60;55.10;;;;;;5026884;28;20062;-77
2022/06/21 07:31:58;;;;;;;6.35;1.33;;;23.30;54.60;;;;;;5021063;28;20494;-78
2022/06/21 07:34:35;;;;;;;3.75;1.20;;;23.20;54.90;;;;;;5020430;28;20042;-83
2022/06/21 07:37:22;;;;;;;2.90;1.05;;;22.50;55.00;;;;;;5018776;28;20038;-77
2022/06/21 07:39:55;;;;;;;2.10;1.15;;;23.10;54.50;;;;;;5026176;28;20045;-75
2022/06/21 07:42:24;;;;;;;5.07;1.65;;;23.00;54.70;;;;;;5028830;28;20037;-78
2022/06/21 07:45:00;;;;;;;4.68;1.50;;;22.30;55.20;;;;;;5022036;28;20045;-75
2022/06/21 07:47:54;;;;;;;3.60;1.70;;;22.00;55.80;;;;;;5030606;28;20038;-77
2022/06/21 07:50:31;;;;;;;4.78;1.15;;;21.70;55.00;;;;;;5034981;28;20036;-75
2022/06/21 07:53:04;;;;;;;4.45;1.73;;;20.40;57.70;;;;;;5050088;28;20033;-76
2022/06/21 07:55:38;;;;;;;3.42;1.15;;;20.10;58.10;;;;;;5042191;28;20485;-74
2022/06/21 07:58:13;;;;;;;2.92;1.05;;;19.60;59.00;;;;;;5040745;28;20060;-76
2022/06/21 08:06:42;;;;;;;3.47;1.60;;;20.00;58.30;;;;;;5046713;28;20033;-75
2022/06/21 08:09:13;;;;;;;6.43;1.30;;;20.10;58.40;;;;;;5037433;28;20038;-74
2022/06/21 08:11:44;;;;;;;4.15;0.93;;;20.30;57.50;;;;;;5046601;28;20382;-74
2022/06/21 08:14:13;;;;;;;6.93;1.23;;;20.90;56.60;;;;;;5036426;28;20049;-75
2022/06/21 08:17:03;;;;;;;2.75;0.85;;;20.90;56.30;;;;;;5035408;28;20042;-76
2022/06/21 08:19:48;;;;;;;;;;;21.00;56.60;;;;;;5038721;28;20040;-74
2022/06/21 08:22:21;;;;;;;2.22;0.98;;;21.20;55.70;;;;;;5035056;28;19917;-76
2022/06/21 08:25:02;;;;;;;4.30;1.05;;;21.50;54.90;;;;;;5041070;28;20386;-76
2022/06/21 08:27:44;;;;;;;4.53;1.20;;;21.20;55.20;;;;;;5034421;28;20033;-80
2022/06/21 08:30:18;;;;;;;3.88;0.90;;;21.20;55.50;;;;;;5048072;28;20032;-75
2022/06/21 08:33:06;;;;;;;4.30;1.15;;;22.30;54.30;;;;;;5034532;28;20036;-76
2022/06/21 08:35:45;;;;;;;2.85;1.05;;;22.80;52.90;;;;;;5031641;28;20033;-77
2022/06/21 08:38:23;;;;;;;3.20;1.30;;;22.30;53.00;;;;;;5034828;28;20071;-76
2022/06/21 08:40:55;;;;;;;2.10;1.10;;;21.80;53.80;;;;;;5035549;28;20489;-76
2022/06/21 08:43:40;;;;;;;2.03;1.00;;;21.60;55.20;;;;;;5035250;28;20033;-76
2022/06/21 08:46:37;;;;;;;2.28;1.10;;;21.70;54.70;;;;;;5033722;28;20396;-82
2022/06/21 08:49:20;;;;;;;2.03;0.85;;;21.90;54.40;;;;;;5048164;28;20041;-73
2022/06/21 08:52:23;;;;;;;2.83;1.00;;;22.10;54.40;;;;;;5047222;28;20040;-77
2022/06/21 08:55:02;;;;;;;1.40;0.65;;;22.60;53.20;;;;;;5043332;28;20142;-76
2022/06/21 08:57:52;;;;;;;1.65;0.80;;;22.80;52.00;;;;;;5034701;28;20126;-76
2022/06/21 09:00:36;;;;;;;;;;;22.70;50.50;;;;;;5035118;28;20034;-78
2022/06/21 09:03:24;;;;;;;2.55;1.00;;;22.50;50.40;;;;;;5037819;28;19913;-76
2022/06/21 09:06:26;;;;;;;2.22;0.98;;;22.80;50.60;;;;;;5039526;28;20030;-77
2022/06/21 09:09:24;;;;;;;2.40;0.75;;;23.90;49.80;;;;;;5033677;28;20040;-75
2022/06/21 09:12:06;;;;;;;1.27;0.88;;;24.20;48.10;;;;;;5031588;28;20046;-76
2022/06/21 09:14:53;;;;;;;2.60;0.90;;;23.40;50.20;;;;;;5047980;28;20049;-75
2022/06/21 09:17:54;;;;;;;1.65;0.80;;;24.40;48.60;;;;;;5046858;28;20048;-76
2022/06/21 09:20:33;;;;;;;2.33;0.93;;;24.60;48.10;;;;;;5025107;28;20093;-76
2022/06/21 09:23:08;;;;;;;3.43;1.17;;;24.70;48.10;;;;;;5024674;28;20060;-76
2022/06/21 09:26:15;;;;;;;4.40;0.82;;;24.80;49.70;;;;;;5026547;28;20140;-75
2022/06/21 09:28:54;;;;;;;2.55;0.80;;;24.90;48.20;;;;;;5014823;28;20068;-76
2022/06/21 09:31:49;;;;;;;3.25;0.80;;;25.70;49.40;;;;;;5024638;28;20279;-78
2022/06/21 09:34:36;;;;;;;3.10;0.70;;;26.90;46.90;;;;;;5024513;28;20097;-76
2022/06/21 09:37:35;;;;;;;3.47;1.00;;;27.10;47.10;;;;;;5021325;28;20037;-79
2022/06/21 09:40:12;;;;;;;2.58;0.95;;;28.10;45.30;;;;;;5026271;28;20052;-77
2022/06/21 09:43:02;;;;;;;2.63;1.00;;;26.20;45.70;;;;;;5021904;28;20038;-77
2022/06/21 09:45:44;;;;;;;2.03;0.80;;;26.40;46.00;;;;;;5023733;28;20399;-77
2022/06/21 09:48:17;;;;;;;2.75;1.30;;;26.30;45.30;;;;;;5025819;28;20044;-77
2022/06/21 09:50:57;;;;;;;3.92;1.40;;;25.10;47.80;;;;;;5023806;28;20037;-77
2022/06/21 09:53:34;;;;;;;5.43;1.35;;;24.10;48.50;;;;;;5026736;28;20030;-80
2022/06/21 09:56:21;;;;;;;1.92;0.90;;;23.60;49.00;;;;;;5028052;28;20132;-79
2022/06/21 09:58:51;;;;;;;4.70;0.90;;;23.40;49.40;;;;;;5038794;28;20104;-76
2022/06/21 10:01:27;;;;;;;3.30;0.80;;;23.30;49.40;;;;;;5033347;28;20029;-77
2022/06/21 10:04:29;;;;;;;3.08;1.25;;;23.40;50.10;;;;;;5035130;28;20378;-77
2022/06/21 10:07:07;;;;;;;2.85;0.85;;;23.70;48.90;;;;;;5029107;28;20506;-75
2022/06/21 10:09:52;;;;;;;2.58;0.90;;;24.00;48.40;;;;;;5044079;28;20033;-75
2022/06/21 10:12:34;;;;;;;2.42;1.05;;;24.70;47.50;;;;;;5033251;28;20037;-76
2022/06/21 10:15:21;;;;;;;2.60;1.00;;;25.60;46.40;;;;;;5031991;28;20045;-74
2022/06/21 10:18:06;;;;;;;1.42;0.75;;;25.80;46.40;;;;;;5032720;28;20041;-77
2022/06/21 10:20:56;;;;;;;1.48;0.98;;;25.40;46.20;;;;;;5037174;28;20059;-77
2022/06/21 10:23:28;;;;;;;2.60;1.10;;;25.70;45.80;;;;;;5042242;28;20037;-77
2022/06/21 10:26:18;;;;;;;3.90;0.88;;;26.50;46.30;;;;;;5036530;28;20030;-77
2022/06/21 10:29:17;;;;;;;5.10;1.10;;;26.60;45.20;;;;;;5040230;28;20405;-76
2022/06/21 10:32:02;;;;;;;4.67;1.00;;;26.60;45.40;;;;;;5042133;28;20386;-76
2022/06/21 10:34:48;;;;;;;3.20;0.70;;;25.30;46.00;;;;;;5046499;28;20033;-80
2022/06/21 10:37:30;;;;;;;2.05;0.65;;;24.70;46.70;;;;;;5043121;28;20040;-77
2022/06/21 10:40:14;;;;;;;4.93;1.40;;;24.40;48.00;;;;;;5039428;28;20033;-76
2022/06/21 10:42:55;;;;;;;2.03;1.10;;;24.30;47.20;;;;;;5032382;28;20037;-77
2022/06/21 10:45:49;;;;;;;3.58;0.90;;;24.70;47.10;;;;;;5032767;28;20030;-76
2022/06/21 10:48:48;;;;;;;4.50;1.00;;;25.20;45.70;;;;;;5037045;28;20045;-75
2022/06/21 10:51:14;;;;;;;1.75;0.73;;;25.20;46.50;;;;;;5037385;28;20037;-75
2022/06/21 10:53:49;;;;;;;2.50;0.80;;;25.60;46.30;;;;;;5036682;28;20037;-79
2022/06/21 11:01:16;;;;;;;1.50;0.60;;;26.50;46.00;;;;;;5033811;28;20056;-74
2022/06/21 11:02:40;;;;;;;3.03;0.70;;;26.60;45.30;;;;;;5037038;28;20042;-77
2022/06/21 11:05:31;;;;;;;1.75;0.88;;;27.00;45.80;;;;;;5033231;28;20037;-76
2022/06/21 11:08:22;;;;;;;2.13;0.70;;;26.20;44.50;;;;;;5037611;28;20136;-76
2022/06/21 11:11:04;;;;;;;2.50;0.80;;;26.10;45.20;;;;;;5042904;28;20048;-77
2022/06/21 11:13:40;;;;;;;2.83;0.68;;;26.10;44.70;;;;;;5054082;28;20049;-80
2022/06/21 11:16:17;;;;;;;4.63;1.00;;;25.70;44.70;;;;;;5035973;28;20033;-77
2022/06/21 11:19:20;;;;;;;2.45;0.90;;;26.00;44.80;;;;;;5037482;28;20034;-78
2022/06/21 11:21:49;;;;;;;1.83;0.90;;;26.20;45.60;;;;;;5037617;28;20489;-77
2022/06/21 11:24:44;;;;;;;2.17;0.75;;;26.30;44.20;;;;;;5047665;28;20041;-75
2022/06/21 11:27:21;;;;;;;3.63;0.77;;;25.70;43.80;;;;;;5039712;28;20030;-75
2022/06/21 11:29:59;;;;;;;3.42;0.75;;;25.50;44.00;;;;;;5049333;28;20043;-77
2022/06/21 11:32:43;;;;;;;2.38;0.80;;;25.30;44.30;;;;;;5036484;28;20037;-75
2022/06/21 11:35:58;;;;;;;1.48;0.73;;;25.20;44.80;;;;;;5045670;28;20040;-78
2022/06/21 11:38:43;;;;;;;1.25;0.68;;;25.50;44.60;;;;;;5029494;28;20064;-77
2022/06/21 11:41:12;;;;;;;1.67;0.80;;;25.90;43.50;;;;;;5049503;28;20036;-77
2022/06/21 11:43:38;;;;;;;1.30;0.70;;;26.40;43.40;;;;;;5051288;28;20088;-78
2022/06/21 11:46:29;;;;;;;1.77;0.88;;;26.00;43.40;;;;;;5048731;28;20048;-76
2022/06/21 11:49:16;;;;;;;1.42;0.90;;;26.10;44.10;;;;;;5043221;28;20499;-75
2022/06/21 11:52:16;;;;;;;2.65;0.80;;;25.90;43.70;;;;;;5045164;28;20045;-78
2022/06/21 11:54:46;;;;;;;;;;;25.80;42.90;;;;;;5037779;28;20032;-76
2022/06/21 11:57:30;;;;;;;2.13;0.80;;;25.60;43.10;;;;;;5049265;28;19908;-76
2022/06/21 12:00:05;;;;;;;3.35;0.73;;;25.50;43.30;;;;;;5047648;28;20037;-77
2022/06/21 12:02:58;;;;;;;1.85;0.93;;;25.80;43.70;;;;;;5049887;28;20048;-79
2022/06/21 12:05:46;;;;;;;3.08;0.90;;;26.40;44.50;;;;;;5034655;28;20029;-76
2022/06/21 12:08:26;;;;;;;2.65;0.85;;;26.80;43.20;;;;;;5038920;28;20502;-80
2022/06/21 12:11:03;;;;;;;2.30;0.85;;;26.60;44.60;;;;;;5041308;28;20029;-78
2022/06/21 12:14:02;;;;;;;2.22;1.10;;;26.60;44.30;;;;;;5043008;28;20406;-81
2022/06/21 12:16:40;;;;;;;2.33;0.98;;;26.40;45.10;;;;;;5040654;28;20033;-78
2022/06/21 12:19:13;;;;;;;2.60;1.13;;;26.30;44.80;;;;;;5034332;28;20025;-77
2022/06/21 12:21:48;;;;;;;2.03;0.95;;;25.70;45.60;;;;;;5038814;28;20127;-79
2022/06/21 12:24:20;;;;;;;3.80;1.05;;;25.70;45.70;;;;;;5035514;28;20060;-77
2022/06/21 12:26:47;;;;;;;5.07;1.73;;;26.30;45.70;;;;;;5036778;28;20040;-79
2022/06/21 12:29:16;;;;;;;3.35;0.80;;;26.80;45.60;;;;;;5040127;28;20037;-79
2022/06/21 12:31:51;;;;;;;4.73;1.00;;;26.40;45.30;;;;;;5034617;28;20466;-76
2022/06/21 12:34:30;;;;;;;4.32;1.25;;;26.50;45.80;;;;;;5038666;28;20037;-75
2022/06/21 12:37:04;;;;;;;2.03;0.95;;;27.00;46.10;;;;;;5042209;28;20038;-77
2022/06/21 12:39:48;;;;;;;2.17;1.27;;;27.80;45.00;;;;;;5032704;28;20041;-84
2022/06/21 12:42:46;;;;;;;2.35;1.10;;;27.20;45.20;;;;;;5039749;28;20048;-75
2022/06/21 12:45:49;;;;;;;2.45;1.10;;;26.80;45.40;;;;;;5035938;28;20034;-74
2022/06/21 12:48:25;;;;;;;1.10;0.80;;;27.00;45.50;;;;;;5031811;28;20403;-76
2022/06/21 12:51:15;;;;;;;4.00;0.95;;;26.80;45.70;;;;;;5042105;28;20382;-74
2022/06/21 12:53:59;;;;;;;2.15;0.88;;;27.00;45.60;;;;;;5038619;28;20037;-76
2022/06/21 12:56:58;;;;;;;13.80;1.45;;;27.50;46.20;;;;;;5043860;28;20036;-76
2022/06/21 12:59:43;;;;;;;3.95;1.33;;;28.20;45.40;;;;;;5043355;28;20041;-77
2022/06/21 13:02:40;;;;;;;2.45;0.95;;;28.30;44.60;;;;;;5045928;28;20041;-78
2022/06/21 13:05:25;;;;;;;2.75;1.20;;;28.20;45.70;;;;;;5043468;28;20045;-75
2022/06/21 13:08:28;;;;;;;3.10;1.10;;;28.70;44.40;;;;;;5033391;28;20033;-76
2022/06/21 13:11:14;;;;;;;3.53;1.20;;;28.00;44.60;;;;;;5033204;28;20048;-76
2022/06/21 13:13:46;;;;;;;4.20;1.33;;;28.10;45.20;;;;;;5036327;28;20059;-77
2022/06/21 13:16:43;;;;;;;2.33;1.10;;;28.10;45.40;;;;;;5037352;28;20044;-78
2022/06/21 13:19:48;;;;;;;1.20;0.88;;;27.70;45.10;;;;;;5036248;28;20033;-78
2022/06/21 13:22:53;;;;;;;3.10;1.20;;;27.40;46.30;;;;;;5062316;28;20033;-78
2022/06/21 13:25:43;;;;;;;3.25;1.23;;;27.30;46.20;;;;;;5025690;28;20045;-75
2022/06/21 13:28:33;;;;;;;2.97;1.15;;;27.30;46.60;;;;;;5030413;28;20037;-76
2022/06/21 13:31:17;;;;;;;;;;;27.30;46.50;;;;;;5025630;28;20045;-77
2022/06/21 13:34:06;;;;;;;2.97;0.82;;;27.70;45.60;;;;;;5024019;28;19952;-76
2022/06/21 13:36:49;;;;;;;2.90;1.38;;;27.50;46.10;;;;;;5026818;28;20037;-78
2022/06/21 13:39:15;;;;;;;3.63;1.40;;;27.90;46.30;;;;;;5025753;28;20037;-78
2022/06/21 13:45:18;;;;;;;2.97;1.27;;;28.10;45.40;;;;;;5025114;28;20510;-77
2022/06/21 13:48:15;;;;;;;3.58;0.90;;;28.30;46.10;;;;;;4995973;28;20037;-76
2022/06/21 13:51:05;;;;;;;2.78;1.33;;;28.10;45.40;;;;;;5028807;28;20044;-76
2022/06/21 13:54:10;;;;;;;4.93;1.55;;;27.60;46.30;;;;;;4996143;28;20050;-80
2022/06/21 13:57:05;;;;;;;2.90;1.65;;;27.60;46.40;;;;;;5008911;28;20048;-76
2022/06/21 13:59:44;;;;;;;4.32;1.70;;;27.60;47.10;;;;;;5041134;28;20060;-80
2022/06/21 14:02:31;;;;;;;2.95;1.70;;;27.90;46.90;;;;;;5035731;28;20053;-77
2022/06/21 14:05:05;;;;;;;3.95;1.73;;;27.70;46.90;;;;;;5031200;28;20502;-78
2022/06/21 14:07:38;;;;;;;6.40;1.92;;;27.40;47.10;;;;;;5032195;28;20033;-81
2022/06/21 14:10:29;;;;;;;4.28;1.80;;;27.70;47.30;;;;;;5047814;28;20394;-77